createdAt,value
2023-04-03T00:00:17.210Z,75.5
2023-04-03T00:01:16.765Z,74.9
2023-04-03T00:02:16.622Z,75.4
2023-04-03T00:03:17.372Z,75.3
2023-04-03T00:04:17.072Z,75.3
2023-04-03T00:05:16.674Z,75.2
2023-04-03T00:06:17.217Z,75.1
2023-04-03T00:07:16.780Z,75.2
2023-04-03T00:08:17.311Z,75.3
2023-04-03T00:09:16.858Z,75.0
2023-04-03T00:10:17.433Z,74.9
2023-04-03T00:11:16.993Z,75.2
2023-04-03T00:12:17.472Z,75.2
2023-04-03T00:13:17.044Z,75.2
2023-04-03T00:14:16.601Z,75.0
2023-04-03T00:15:17.154Z,75.0
2023-04-03T00:16:16.808Z,74.9
2023-04-03T00:17:17.419Z,74.9
2023-04-03T00:18:16.987Z,75.0
2023-04-03T00:19:16.683Z,75.1
2023-04-03T00:20:17.243Z,75.3
2023-04-03T00:21:16.775Z,75.0
2023-04-03T00:22:17.168Z,75.2
2023-04-03T00:23:16.793Z,75.2
2023-04-03T00:24:17.404Z,75.2
2023-04-03T00:25:17.006Z,75.1
2023-04-03T00:26:16.554Z,75.2
2023-04-03T00:27:17.129Z,75.4
2023-04-03T00:28:16.661Z,75.5
2023-04-03T00:29:17.282Z,75.6
2023-04-03T00:30:16.883Z,75.5
2023-04-03T00:31:17.620Z,75.5
2023-04-03T00:32:17.281Z,75.4
2023-04-03T00:33:16.814Z,75.5
2023-04-03T00:34:17.353Z,75.6
2023-04-03T00:35:16.952Z,75.7
2023-04-03T00:36:17.620Z,75.6
2023-04-03T00:37:17.228Z,75.6
2023-04-03T00:38:16.766Z,75.8
2023-04-03T00:39:17.308Z,76.0
2023-04-03T00:40:16.866Z,76.1
2023-04-03T00:41:17.438Z,76.2
2023-04-03T00:42:16.607Z,76.3
2023-04-03T00:43:17.148Z,76.3
2023-04-03T00:44:16.683Z,76.5
2023-04-03T00:45:17.252Z,76.5
2023-04-03T00:46:16.999Z,76.4
2023-04-03T00:47:16.544Z,76.4
2023-04-03T00:48:17.104Z,76.5
2023-04-03T00:49:16.632Z,77.0
2023-04-03T00:50:17.236Z,76.8
2023-04-03T00:51:16.847Z,76.3
2023-04-03T00:52:17.343Z,76.4
2023-04-03T00:53:17.128Z,76.4
2023-04-03T00:54:16.739Z,76.6
2023-04-03T00:55:17.344Z,76.5
2023-04-03T00:56:16.909Z,76.5
2023-04-03T00:57:17.661Z,76.4
2023-04-03T00:58:17.215Z,76.5
2023-04-03T00:59:16.751Z,76.5
2023-04-03T01:00:18.272Z,76.5
2023-04-03T01:01:16.904Z,76.5
2023-04-03T01:02:17.512Z,76.3
2023-04-03T01:03:17.097Z,76.3
2023-04-03T01:04:16.751Z,76.4
2023-04-03T01:05:17.364Z,76.9
2023-04-03T01:06:16.925Z,76.9
2023-04-03T01:07:17.505Z,76.8
2023-04-03T01:08:17.068Z,76.6
2023-04-03T01:09:16.625Z,76.6
2023-04-03T01:10:17.336Z,76.6
2023-04-03T01:11:16.895Z,76.6
2023-04-03T01:12:16.615Z,76.6
2023-04-03T01:13:17.169Z,76.7
2023-04-03T01:14:16.755Z,76.7
2023-04-03T01:15:17.300Z,76.9
2023-04-03T01:16:17.032Z,77.0
2023-04-03T01:17:16.651Z,77.1
2023-04-03T01:18:17.230Z,77.1
2023-04-03T01:19:16.793Z,77.1
2023-04-03T01:20:17.348Z,77.1
2023-04-03T01:21:16.932Z,77.1
2023-04-03T01:22:16.720Z,77.1
2023-04-03T01:23:17.299Z,77.2
2023-04-03T01:24:16.857Z,77.6
2023-04-03T01:25:17.400Z,77.6
2023-04-03T01:26:16.940Z,77.4
2023-04-03T01:27:17.475Z,77.7
2023-04-03T01:28:17.050Z,77.3
2023-04-03T01:29:16.608Z,77.2
2023-04-03T01:30:17.180Z,77.3
2023-04-03T01:31:16.760Z,77.4
2023-04-03T01:32:17.495Z,77.5
2023-04-03T01:33:17.066Z,77.6
2023-04-03T01:34:16.599Z,77.6
2023-04-03T01:35:17.137Z,77.8
2023-04-03T01:36:16.777Z,77.9
2023-04-03T01:37:17.481Z,78.0
2023-04-03T01:38:17.031Z,78.3
2023-04-03T01:39:16.607Z,78.2
2023-04-03T01:40:17.172Z,78.3
2023-04-03T01:41:16.737Z,78.3
2023-04-03T01:42:16.581Z,78.4
2023-04-03T01:43:17.123Z,78.6
2023-04-03T01:44:16.694Z,78.3
2023-04-03T01:45:17.245Z,78.8
2023-04-03T01:46:16.879Z,78.6
2023-04-03T01:47:17.425Z,78.6
2023-04-03T01:48:16.976Z,78.6
2023-04-03T01:49:16.516Z,78.4
2023-04-03T01:50:17.085Z,78.5
2023-04-03T01:51:16.621Z,78.6
2023-04-03T01:52:16.610Z,79.1
2023-04-03T01:53:17.148Z,79.0
2023-04-03T01:54:16.683Z,79.2
2023-04-03T01:55:17.235Z,79.1
2023-04-03T01:56:16.756Z,79.1
2023-04-03T01:57:17.341Z,79.1
2023-04-03T01:58:16.895Z,79.6
2023-04-03T01:59:17.469Z,79.5
2023-04-03T02:00:17.062Z,79.4
2023-04-03T02:01:16.655Z,79.5
2023-04-03T02:02:17.101Z,79.9
2023-04-03T02:03:16.646Z,80.1
2023-04-03T02:04:17.310Z,79.8
2023-04-03T02:05:16.895Z,79.9
2023-04-03T02:06:17.459Z,80.0
2023-04-03T02:07:17.007Z,79.9
2023-04-03T02:08:16.553Z,80.1
2023-04-03T02:09:17.087Z,80.1
2023-04-03T02:10:16.643Z,80.1
2023-04-03T02:11:17.207Z,80.6
2023-04-03T02:12:17.164Z,80.4
2023-04-03T02:13:16.758Z,80.6
2023-04-03T02:14:17.348Z,80.7
2023-04-03T02:15:16.917Z,80.6
2023-04-03T02:16:17.644Z,80.7
2023-04-03T02:17:17.238Z,80.8
2023-04-03T02:18:16.818Z,80.9
2023-04-03T02:19:17.372Z,81.2
2023-04-03T02:20:16.903Z,81.1
2023-04-03T02:21:17.446Z,81.5
2023-04-03T02:22:16.760Z,81.4
2023-04-03T02:23:17.290Z,81.3
2023-04-03T02:24:16.851Z,81.4
2023-04-03T02:25:17.411Z,81.7
2023-04-03T02:26:16.962Z,81.5
2023-04-03T02:27:17.549Z,81.6
2023-04-03T02:28:17.150Z,81.7
2023-04-03T02:29:16.743Z,81.6
2023-04-03T02:30:17.340Z,81.7
2023-04-03T02:31:17.009Z,81.6
2023-04-03T02:32:17.190Z,81.7
2023-04-03T02:33:16.734Z,81.8
2023-04-03T02:34:17.288Z,81.7
2023-04-03T02:35:16.877Z,81.8
2023-04-03T02:36:17.462Z,81.8
2023-04-03T02:37:16.992Z,81.8
2023-04-03T02:38:16.541Z,82.0
2023-04-03T02:39:17.107Z,82.1
2023-04-03T02:40:16.648Z,82.0
2023-04-03T02:41:17.203Z,82.0
2023-04-03T02:42:17.121Z,82.1
2023-04-03T02:43:16.697Z,82.1
2023-04-03T02:44:17.255Z,82.1
2023-04-03T02:45:16.807Z,82.1
2023-04-03T02:46:17.423Z,82.4
2023-04-03T02:47:16.997Z,82.3
2023-04-03T02:48:16.559Z,82.2
2023-04-03T02:49:17.115Z,82.1
2023-04-03T02:50:16.670Z,82.3
2023-04-03T02:51:17.235Z,82.3
2023-04-03T02:52:16.720Z,82.1
2023-04-03T02:53:17.262Z,82.1
2023-04-03T02:54:16.830Z,82.2
2023-04-03T02:55:17.458Z,82.3
2023-04-03T02:56:17.025Z,82.5
2023-04-03T02:57:16.661Z,82.3
2023-04-03T02:58:17.249Z,82.3
2023-04-03T02:59:16.796Z,82.3
2023-04-03T03:00:17.360Z,82.5
2023-04-03T03:01:17.128Z,82.5
2023-04-03T03:02:16.670Z,82.4
2023-04-03T03:03:17.215Z,82.5
2023-04-03T03:04:16.797Z,82.5
2023-04-03T03:05:17.447Z,82.6
2023-04-03T03:06:17.006Z,82.6
2023-04-03T03:07:16.556Z,82.5
2023-04-03T03:08:17.098Z,82.7
2023-04-03T03:09:16.683Z,82.9
2023-04-03T03:10:17.241Z,82.9
2023-04-03T03:11:16.807Z,83.0
2023-04-03T03:12:16.958Z,83.0
2023-04-03T03:13:16.527Z,83.0
2023-04-03T03:14:17.101Z,82.9
2023-04-03T03:15:16.715Z,83.0
2023-04-03T03:16:17.416Z,83.1
2023-04-03T03:17:16.947Z,83.2
2023-04-03T03:18:17.471Z,83.3
2023-04-03T03:19:17.015Z,83.2
2023-04-03T03:20:16.588Z,83.2
2023-04-03T03:21:17.152Z,83.2
2023-04-03T03:22:16.995Z,83.3
2023-04-03T03:23:16.575Z,83.5
2023-04-03T03:24:17.124Z,83.5
2023-04-03T03:25:16.680Z,83.8
2023-04-03T03:26:17.229Z,84.0
2023-04-03T03:27:16.813Z,83.8
2023-04-03T03:28:17.379Z,83.9
2023-04-03T03:29:16.910Z,84.0
2023-04-03T03:30:17.459Z,84.0
2023-04-03T03:31:17.074Z,84.1
2023-04-03T03:32:16.932Z,84.0
2023-04-03T03:33:17.469Z,84.2
2023-04-03T03:34:17.032Z,84.0
2023-04-03T03:35:16.586Z,84.0
2023-04-03T03:36:17.252Z,84.2
2023-04-03T03:37:16.809Z,84.0
2023-04-03T03:38:17.366Z,84.1
2023-04-03T03:39:16.944Z,84.1
2023-04-03T03:40:18.336Z,84.1
2023-04-03T03:41:16.876Z,84.3
2023-04-03T03:42:16.928Z,84.3
2023-04-03T03:43:17.459Z,84.3
2023-04-03T03:44:16.988Z,84.3
2023-04-03T03:45:16.535Z,84.2
2023-04-03T03:46:17.113Z,84.3
2023-04-03T03:47:16.690Z,84.4
2023-04-03T03:48:17.271Z,84.4
2023-04-03T03:49:16.817Z,84.8
2023-04-03T03:50:17.408Z,84.6
2023-04-03T03:51:16.969Z,84.5
2023-04-03T03:52:17.009Z,84.6
2023-04-03T03:53:16.600Z,84.5
2023-04-03T03:54:17.150Z,84.4
2023-04-03T03:55:16.705Z,84.6
2023-04-03T03:56:17.272Z,84.7
2023-04-03T03:57:17.033Z,84.7
2023-04-03T03:58:16.588Z,84.8
2023-04-03T03:59:17.186Z,84.9
2023-04-03T04:00:16.784Z,84.8
2023-04-03T04:01:17.347Z,84.9
2023-04-03T04:02:17.532Z,85.1
2023-04-03T04:03:17.371Z,85.2
2023-04-03T04:04:17.276Z,85.3
2023-04-03T04:05:16.935Z,85.1
2023-04-03T04:06:17.484Z,85.3
2023-04-03T04:07:17.030Z,85.3
2023-04-03T04:08:16.601Z,85.2
2023-04-03T04:09:17.138Z,85.2
2023-04-03T04:10:16.701Z,85.0
2023-04-03T04:11:17.257Z,85.1
2023-04-03T04:12:17.110Z,85.4
2023-04-03T04:13:16.641Z,85.3
2023-04-03T04:14:17.169Z,85.3
2023-04-03T04:15:16.746Z,85.5
2023-04-03T04:16:17.328Z,85.6
2023-04-03T04:17:16.968Z,85.6
2023-04-03T04:18:17.536Z,85.4
2023-04-03T04:19:17.108Z,85.6
2023-04-03T04:20:16.752Z,85.7
2023-04-03T04:21:17.326Z,85.8
2023-04-03T04:22:16.993Z,85.9
2023-04-03T04:23:16.569Z,85.8
2023-04-03T04:24:17.121Z,86.0
2023-04-03T04:25:16.718Z,85.9
2023-04-03T04:26:17.281Z,86.1
2023-04-03T04:27:16.835Z,85.9
2023-04-03T04:28:17.372Z,86.1
2023-04-03T04:29:16.915Z,86.0
2023-04-03T04:30:17.489Z,86.3
2023-04-03T04:31:17.087Z,86.3
2023-04-03T04:32:16.981Z,86.4
2023-04-03T04:33:16.553Z,86.4
2023-04-03T04:34:17.110Z,86.4
2023-04-03T04:35:17.338Z,86.4
2023-04-03T04:36:17.079Z,86.4
2023-04-03T04:37:16.687Z,86.3
2023-04-03T04:38:17.253Z,86.4
2023-04-03T04:39:16.839Z,86.7
2023-04-03T04:40:17.389Z,86.6
2023-04-03T04:41:16.924Z,86.8
2023-04-03T04:42:18.165Z,86.8
2023-04-03T04:43:16.699Z,86.9
2023-04-03T04:44:17.359Z,86.9
2023-04-03T04:45:16.938Z,87.1
2023-04-03T04:46:17.625Z,86.9
2023-04-03T04:47:17.206Z,87.0
2023-04-03T04:48:16.784Z,87.0
2023-04-03T04:49:17.323Z,87.2
2023-04-03T04:50:16.935Z,86.9
2023-04-03T04:51:17.496Z,87.0
2023-04-03T04:52:17.247Z,87.3
2023-04-03T04:53:16.778Z,87.3
2023-04-03T04:54:17.340Z,87.3
2023-04-03T04:55:16.944Z,87.5
2023-04-03T04:56:17.530Z,87.4
2023-04-03T04:57:17.200Z,87.3
2023-04-03T04:58:16.824Z,87.5
2023-04-03T04:59:17.927Z,87.5
2023-04-03T05:00:17.040Z,87.5
2023-04-03T05:01:16.640Z,87.4
2023-04-03T05:02:17.371Z,87.6
2023-04-03T05:03:16.930Z,87.6
2023-04-03T05:04:17.563Z,87.6
2023-04-03T05:05:17.301Z,87.4
2023-04-03T05:06:16.863Z,87.3
2023-04-03T05:07:17.412Z,87.4
2023-04-03T05:08:16.968Z,87.4
2023-04-03T05:09:17.515Z,87.1
2023-04-03T05:10:17.064Z,87.2
2023-04-03T05:11:16.606Z,87.3
2023-04-03T05:12:17.234Z,87.3
2023-04-03T05:13:16.813Z,87.4
2023-04-03T05:14:17.369Z,87.4
2023-04-03T05:15:16.907Z,87.4
2023-04-03T05:16:17.570Z,87.4
2023-04-03T05:17:17.167Z,87.4
2023-04-03T05:18:16.731Z,87.4
2023-04-03T05:19:17.292Z,87.4
2023-04-03T05:20:16.856Z,87.5
2023-04-03T05:21:17.400Z,87.5
2023-04-03T05:22:16.928Z,87.7
2023-04-03T05:23:17.508Z,87.6
2023-04-03T05:24:17.090Z,87.6
2023-04-03T05:25:16.654Z,87.5
2023-04-03T05:26:17.181Z,87.5
2023-04-03T05:27:16.749Z,87.4
2023-04-03T05:28:17.325Z,87.4
2023-04-03T05:29:16.945Z,87.4
2023-04-03T05:30:17.486Z,87.2
2023-04-03T05:31:17.082Z,87.3
2023-04-03T05:32:16.880Z,87.5
2023-04-03T05:33:17.479Z,87.5
2023-04-03T05:34:17.015Z,87.4
2023-04-03T05:35:16.609Z,87.4
2023-04-03T05:36:17.637Z,87.1
2023-04-03T05:37:17.655Z,87.0
2023-04-03T05:38:17.376Z,87.0
2023-04-03T05:39:17.098Z,86.9
2023-04-03T05:40:18.890Z,86.9
2023-04-03T05:41:17.478Z,87.0
2023-04-03T05:42:16.776Z,87.0
2023-04-03T05:43:17.333Z,87.3
2023-04-03T05:44:16.904Z,87.3
2023-04-03T05:45:17.450Z,87.4
2023-04-03T05:46:17.112Z,87.2
2023-04-03T05:47:16.708Z,87.1
2023-04-03T05:48:17.271Z,86.8
2023-04-03T05:49:16.840Z,86.6
2023-04-03T05:50:17.371Z,86.6
2023-04-03T05:51:16.954Z,86.5
2023-04-03T05:52:16.716Z,86.6
2023-04-03T05:53:17.293Z,86.4
2023-04-03T05:54:16.954Z,86.5
2023-04-03T05:55:16.768Z,86.4
2023-04-03T05:56:17.338Z,86.3
2023-04-03T05:57:16.945Z,86.2
2023-04-03T05:58:16.579Z,86.0
2023-04-03T05:59:17.123Z,86.0
2023-04-03T06:00:16.719Z,86.1
2023-04-03T06:01:17.302Z,85.9
2023-04-03T06:02:17.044Z,85.8
2023-04-03T06:03:16.849Z,85.6
2023-04-03T06:04:17.679Z,85.2
2023-04-03T06:05:17.275Z,85.1
2023-04-03T06:06:16.895Z,85.0
2023-04-03T06:07:17.487Z,84.8
2023-04-03T06:08:17.063Z,84.8
2023-04-03T06:09:16.632Z,84.5
2023-04-03T06:10:17.171Z,84.7
2023-04-03T06:11:16.715Z,84.7
2023-04-03T06:12:16.607Z,84.7
2023-04-03T06:13:17.167Z,84.7
2023-04-03T06:14:16.748Z,84.9
2023-04-03T06:15:17.292Z,84.9
2023-04-03T06:16:16.892Z,84.3
2023-04-03T06:17:17.793Z,83.9
2023-04-03T06:18:17.370Z,83.4
2023-04-03T06:19:16.926Z,83.0
2023-04-03T06:20:17.515Z,82.7
2023-04-03T06:21:17.081Z,82.8
2023-04-03T06:22:16.970Z,83.1
2023-04-03T06:23:16.503Z,82.6
2023-04-03T06:24:17.089Z,82.0
2023-04-03T06:25:16.630Z,82.3
2023-04-03T06:26:17.220Z,82.4
2023-04-03T06:27:16.815Z,82.1
2023-04-03T06:28:17.374Z,82.0
2023-04-03T06:29:16.939Z,82.2
2023-04-03T06:30:17.546Z,82.4
2023-04-03T06:31:17.336Z,81.7
2023-04-03T06:32:16.989Z,81.3
2023-04-03T06:33:16.577Z,80.7
2023-04-03T06:34:17.224Z,80.8
2023-04-03T06:35:16.767Z,81.2
2023-04-03T06:36:17.323Z,80.8
2023-04-03T06:37:16.899Z,80.7
2023-04-03T06:38:17.433Z,80.2
2023-04-03T06:39:16.995Z,80.4
2023-04-03T06:40:16.552Z,80.6
2023-04-03T06:41:17.098Z,80.9
2023-04-03T06:42:17.292Z,80.7
2023-04-03T06:43:16.845Z,80.4
2023-04-03T06:44:17.406Z,80.2
2023-04-03T06:45:16.961Z,79.7
2023-04-03T06:46:17.665Z,80.3
2023-04-03T06:47:17.276Z,80.0
2023-04-03T06:48:16.841Z,80.1
2023-04-03T06:49:17.441Z,80.0
2023-04-03T06:50:17.014Z,80.2
2023-04-03T06:51:16.579Z,80.4
2023-04-03T06:52:17.148Z,80.6
2023-04-03T06:53:16.751Z,80.2
2023-04-03T06:54:17.305Z,79.8
2023-04-03T06:55:16.857Z,80.1
2023-04-03T06:56:17.440Z,79.8
2023-04-03T06:57:17.085Z,79.4
2023-04-03T06:58:16.660Z,79.2
2023-04-03T06:59:17.225Z,79.4
2023-04-03T07:00:16.809Z,79.0
2023-04-03T07:01:17.446Z,78.9
2023-04-03T07:02:16.838Z,79.3
2023-04-03T07:03:17.429Z,79.0
2023-04-03T07:04:17.077Z,79.0
2023-04-03T07:05:16.668Z,79.2
2023-04-03T07:06:17.210Z,79.1
2023-04-03T07:07:16.778Z,78.7
2023-04-03T07:08:17.333Z,78.3
2023-04-03T07:09:16.881Z,78.9
2023-04-03T07:10:17.472Z,78.2
2023-04-03T07:11:17.044Z,78.0
2023-04-03T07:12:16.727Z,78.2
2023-04-03T07:13:17.303Z,78.0
2023-04-03T07:14:16.877Z,78.2
2023-04-03T07:15:17.453Z,78.4
2023-04-03T07:16:17.103Z,78.5
2023-04-03T07:17:16.710Z,78.8
2023-04-03T07:18:17.275Z,78.0
2023-04-03T07:19:16.818Z,78.2
2023-04-03T07:20:17.368Z,77.9
2023-04-03T07:21:16.948Z,77.9
2023-04-03T07:22:16.926Z,78.1
2023-04-03T07:23:17.557Z,77.4
2023-04-03T07:24:17.270Z,77.7
2023-04-03T07:25:16.847Z,77.8
2023-04-03T07:26:17.466Z,77.0
2023-04-03T07:27:17.036Z,76.9
2023-04-03T07:28:16.580Z,76.6
2023-04-03T07:29:17.137Z,75.3
2023-04-03T07:30:16.745Z,75.2
2023-04-03T07:31:17.378Z,74.8
2023-04-03T07:32:17.385Z,75.3
2023-04-03T07:33:16.936Z,75.2
2023-04-03T07:34:17.531Z,75.4
2023-04-03T07:35:17.068Z,75.0
2023-04-03T07:36:16.674Z,74.8
2023-04-03T07:37:17.223Z,74.7
2023-04-03T07:38:16.831Z,74.7
2023-04-03T07:39:17.398Z,73.6
2023-04-03T07:40:18.515Z,73.8
2023-04-03T07:41:17.147Z,74.0
2023-04-03T07:42:17.488Z,73.1
2023-04-03T07:43:17.093Z,73.3
2023-04-03T07:44:16.655Z,73.8
2023-04-03T07:45:17.213Z,73.9
2023-04-03T07:46:16.890Z,73.3
2023-04-03T07:47:17.460Z,73.2
2023-04-03T07:48:17.019Z,73.4
2023-04-03T07:49:16.580Z,74.0
2023-04-03T07:50:17.151Z,73.2
2023-04-03T07:51:16.722Z,73.5
2023-04-03T07:52:16.601Z,73.3
2023-04-03T07:53:17.189Z,73.6
2023-04-03T07:54:16.756Z,72.2
2023-04-03T07:55:17.307Z,72.6
2023-04-03T07:56:16.885Z,73.3
2023-04-03T07:57:17.584Z,72.6
2023-04-03T07:58:17.166Z,72.8
2023-04-03T07:59:16.743Z,72.8
2023-04-03T08:00:17.279Z,72.7
2023-04-03T08:01:16.846Z,72.9
2023-04-03T08:02:16.837Z,72.4
2023-04-03T08:03:17.859Z,70.7
2023-04-03T08:04:17.723Z,71.7
2023-04-03T08:05:17.296Z,71.2
2023-04-03T08:06:26.389Z,71.4
2023-04-03T08:07:16.699Z,71.6
2023-04-03T08:08:19.999Z,72.0
2023-04-03T08:09:17.437Z,72.4
2023-04-03T08:10:16.982Z,72.0
2023-04-03T08:11:16.555Z,71.6
2023-04-03T08:12:16.499Z,72.2
2023-04-03T08:13:17.018Z,72.1
2023-04-03T08:14:16.592Z,72.3
2023-04-03T08:15:17.156Z,71.2
2023-04-03T08:16:17.028Z,69.6
2023-04-03T08:17:16.632Z,68.9
2023-04-03T08:18:17.232Z,69.0
2023-04-03T08:19:26.984Z,69.5
2023-04-03T08:20:16.629Z,66.6
2023-04-03T08:21:17.181Z,66.2
2023-04-03T08:22:17.262Z,65.0
2023-04-03T08:23:20.209Z,66.0
2023-04-03T08:24:16.838Z,65.0
2023-04-03T08:25:17.368Z,65.4
2023-04-03T08:26:16.930Z,65.1
2023-04-03T08:27:17.463Z,65.2
2023-04-03T08:28:17.007Z,65.5
2023-04-03T08:29:16.572Z,65.1
2023-04-03T08:30:17.124Z,63.8
2023-04-03T08:31:16.878Z,63.9
2023-04-03T08:32:17.111Z,62.2
2023-04-03T08:33:16.678Z,61.5
2023-04-03T08:34:17.265Z,61.9
2023-04-03T08:35:16.847Z,61.8
2023-04-03T08:36:17.557Z,61.9
2023-04-03T08:37:17.167Z,61.3
2023-04-03T08:38:16.709Z,62.0
2023-04-03T08:39:17.269Z,62.0
2023-04-03T08:40:16.846Z,59.6
2023-04-03T08:41:17.398Z,59.3
2023-04-03T08:42:17.014Z,58.2
2023-04-03T08:43:16.603Z,56.8
2023-04-03T08:44:17.162Z,56.8
2023-04-03T08:45:16.742Z,56.9
2023-04-03T08:46:17.383Z,58.1
2023-04-03T08:47:16.982Z,59.3
2023-04-03T08:48:16.733Z,58.2
2023-04-03T08:49:17.441Z,57.5
2023-04-03T08:50:17.047Z,58.9
2023-04-03T08:51:16.648Z,58.6
2023-04-03T08:52:17.330Z,60.3
2023-04-03T08:53:16.869Z,60.3
2023-04-03T08:54:17.410Z,59.9
2023-04-03T08:55:16.970Z,60.0
2023-04-03T08:56:16.513Z,60.2
2023-04-03T08:57:17.195Z,60.5
2023-04-03T08:58:16.794Z,59.4
2023-04-03T08:59:17.357Z,60.7
2023-04-03T09:00:16.918Z,61.5
2023-04-03T09:01:17.563Z,63.1
2023-04-03T09:02:17.122Z,63.4
2023-04-03T09:03:16.858Z,63.5
2023-04-03T09:04:17.689Z,63.7
2023-04-03T09:05:17.283Z,63.7
2023-04-03T09:06:16.836Z,62.4
2023-04-03T09:07:17.385Z,62.0
2023-04-03T09:08:16.921Z,60.6
2023-04-03T09:09:17.482Z,60.8
2023-04-03T09:10:17.061Z,60.3
2023-04-03T09:11:16.615Z,61.9
2023-04-03T09:12:16.765Z,62.0
2023-04-03T09:13:17.329Z,61.6
2023-04-03T09:14:16.885Z,62.1
2023-04-03T09:15:28.198Z,62.7
2023-04-03T09:16:16.881Z,61.9
2023-04-03T09:17:17.451Z,61.9
2023-04-03T09:18:17.016Z,61.2
2023-04-03T09:19:16.699Z,59.3
2023-04-03T09:20:20.757Z,59.0
2023-04-03T09:21:16.654Z,60.2
2023-04-03T09:22:17.129Z,61.3
2023-04-03T09:23:16.753Z,61.3
2023-04-03T09:24:17.329Z,61.4
2023-04-03T09:25:16.909Z,61.3
2023-04-03T09:26:17.472Z,61.1
2023-04-03T09:27:17.132Z,61.4
2023-04-03T09:28:16.738Z,62.2
2023-04-03T09:29:17.290Z,62.1
2023-04-03T09:30:16.843Z,62.1
2023-04-03T09:31:17.446Z,62.0
2023-04-03T09:32:16.999Z,61.8
2023-04-03T09:33:16.652Z,61.9
2023-04-03T09:34:17.243Z,61.6
2023-04-03T09:35:27.273Z,62.0
2023-04-03T09:36:17.522Z,61.7
2023-04-03T09:37:17.061Z,60.4
2023-04-03T09:38:16.604Z,60.7
2023-04-03T09:39:17.146Z,60.1
2023-04-03T09:40:16.902Z,60.5
2023-04-03T09:41:17.467Z,59.5
2023-04-03T09:42:17.141Z,60.5
2023-04-03T09:43:16.693Z,60.4
2023-04-03T09:44:17.260Z,59.8
2023-04-03T09:45:16.825Z,59.4
2023-04-03T09:46:20.140Z,60.1
2023-04-03T09:47:17.244Z,60.0
2023-04-03T09:48:17.297Z,58.7
2023-04-03T09:49:16.852Z,56.9
2023-04-03T09:50:17.397Z,57.0
2023-04-03T09:51:16.969Z,56.1
2023-04-03T09:52:17.050Z,55.5
2023-04-03T09:53:16.582Z,56.3
2023-04-03T09:54:17.130Z,55.1
2023-04-03T09:55:16.716Z,55.5
2023-04-03T09:56:17.307Z,57.1
2023-04-03T09:57:16.890Z,56.3
2023-04-03T09:58:17.511Z,55.4
2023-04-03T09:59:17.073Z,56.4
2023-04-03T10:00:16.680Z,56.7
2023-04-03T10:01:17.281Z,56.7
2023-04-03T10:02:16.819Z,57.1
2023-04-03T10:03:17.370Z,56.4
2023-04-03T10:04:17.033Z,56.4
2023-04-03T10:05:16.780Z,56.4
2023-04-03T10:06:17.368Z,56.2
2023-04-03T10:07:16.952Z,56.3
2023-04-03T10:08:17.524Z,57.9
2023-04-03T10:09:17.105Z,59.3
2023-04-03T10:10:16.732Z,58.5
2023-04-03T10:11:17.319Z,57.0
2023-04-03T10:12:17.318Z,57.4
2023-04-03T10:13:21.845Z,57.8
2023-04-03T10:14:16.508Z,55.5
2023-04-03T10:15:17.119Z,54.3
2023-04-03T10:16:16.736Z,55.8
2023-04-03T10:17:17.333Z,57.2
2023-04-03T10:18:25.060Z,55.8
2023-04-03T10:19:16.745Z,54.8
2023-04-03T10:20:17.329Z,55.4
2023-04-03T10:21:27.813Z,55.7
2023-04-03T10:22:16.553Z,55.9
2023-04-03T10:23:17.105Z,55.7
2023-04-03T10:24:16.668Z,54.9
2023-04-03T10:25:17.194Z,54.9
2023-04-03T10:26:16.756Z,55.1
2023-04-03T10:27:17.307Z,54.4
2023-04-03T10:28:16.835Z,55.5
2023-04-03T10:29:17.422Z,56.2
2023-04-03T10:30:16.968Z,55.6
2023-04-03T10:31:16.656Z,55.5
2023-04-03T10:32:17.494Z,55.6
2023-04-03T10:33:17.066Z,55.6
2023-04-03T10:34:16.659Z,55.9
2023-04-03T10:35:17.205Z,56.7
2023-04-03T10:36:16.787Z,56.3
2023-04-03T10:37:17.328Z,55.9
2023-04-03T10:38:16.901Z,57.2
2023-04-03T10:39:17.457Z,57.1
2023-04-03T10:40:17.132Z,57.1
2023-04-03T10:41:17.888Z,57.1
2023-04-03T10:42:18.342Z,56.9
2023-04-03T10:43:16.934Z,57.6
2023-04-03T10:44:17.459Z,54.7
2023-04-03T10:45:17.010Z,54.1
2023-04-03T10:46:16.645Z,52.0
2023-04-03T10:47:17.237Z,54.1
2023-04-03T10:48:16.917Z,52.8
2023-04-03T10:49:17.513Z,52.2
2023-04-03T10:50:17.116Z,52.7
2023-04-03T10:51:16.647Z,51.6
2023-04-03T10:52:16.544Z,52.4
2023-04-03T10:53:17.089Z,52.3
2023-04-03T10:54:16.669Z,53.3
2023-04-03T10:55:17.251Z,53.9
2023-04-03T10:56:16.798Z,54.5
2023-04-03T10:57:17.402Z,55.6
2023-04-03T10:58:17.043Z,55.3
2023-04-03T10:59:16.612Z,56.0
2023-04-03T11:00:17.208Z,56.5
2023-04-03T11:01:16.825Z,55.5
2023-04-03T11:02:17.299Z,55.6
2023-04-03T11:03:16.980Z,55.2
2023-04-03T11:04:16.596Z,54.9
2023-04-03T11:05:17.132Z,55.0
2023-04-03T11:06:16.664Z,54.1
2023-04-03T11:07:17.200Z,55.5
2023-04-03T11:08:16.825Z,53.9
2023-04-03T11:09:17.456Z,53.8
2023-04-03T11:10:17.132Z,53.3
2023-04-03T11:11:16.671Z,53.7
2023-04-03T11:12:17.450Z,53.1
2023-04-03T11:13:17.051Z,52.1
2023-04-03T11:14:16.637Z,51.2
2023-04-03T11:15:17.193Z,51.5
2023-04-03T11:16:16.792Z,50.7
2023-04-03T11:17:17.403Z,51.1
2023-04-03T11:18:16.953Z,50.3
2023-04-03T11:19:16.497Z,51.7
2023-04-03T11:20:17.088Z,50.0
2023-04-03T11:21:16.632Z,50.1
2023-04-03T11:22:17.383Z,51.2
2023-04-03T11:23:16.932Z,51.5
2023-04-03T11:24:17.496Z,51.3
2023-04-03T11:25:17.062Z,51.8
2023-04-03T11:26:16.629Z,51.5
2023-04-03T11:27:17.212Z,49.8
2023-04-03T11:28:16.801Z,50.5
2023-04-03T11:29:35.290Z,50.8
2023-04-03T11:30:17.342Z,52.2
2023-04-03T11:31:16.996Z,51.0
2023-04-03T11:32:16.934Z,51.0
2023-04-03T11:33:17.461Z,51.4
2023-04-03T11:34:17.031Z,51.1
2023-04-03T11:35:16.606Z,51.5
2023-04-03T11:36:30.205Z,51.4
2023-04-03T11:37:16.797Z,50.5
2023-04-03T11:38:17.362Z,51.1
2023-04-03T11:39:16.914Z,51.4
2023-04-03T11:40:17.473Z,53.0
2023-04-03T11:41:17.060Z,53.4
2023-04-03T11:42:17.289Z,53.3
2023-04-03T11:43:16.877Z,53.4
2023-04-03T11:44:17.399Z,53.7
2023-04-03T11:45:16.951Z,53.9
2023-04-03T11:46:17.667Z,55.0
2023-04-03T11:47:17.298Z,54.6
2023-04-03T11:48:25.353Z,54.2
2023-04-03T11:49:16.981Z,52.7
2023-04-03T11:50:16.600Z,53.7
2023-04-03T11:51:17.204Z,54.0
2023-04-03T11:52:16.719Z,54.1
2023-04-03T11:53:17.276Z,54.0
2023-04-03T11:54:16.851Z,54.1
2023-04-03T11:55:17.441Z,55.0
2023-04-03T11:56:16.998Z,55.9
2023-04-03T11:57:16.615Z,55.6
2023-04-03T11:58:17.194Z,55.5
2023-04-03T11:59:16.747Z,55.0
2023-04-03T12:00:17.312Z,56.1
2023-04-03T12:01:16.877Z,56.1
2023-04-03T12:02:16.984Z,55.8
2023-04-03T12:03:16.734Z,55.7
2023-04-03T12:04:17.582Z,55.2
2023-04-03T12:05:17.185Z,55.9
2023-04-03T12:06:16.760Z,56.6
2023-04-03T12:07:17.341Z,56.8
2023-04-03T12:08:16.892Z,56.5
2023-04-03T12:09:17.454Z,55.7
2023-04-03T12:10:32.457Z,55.2
2023-04-03T12:11:17.375Z,55.6
2023-04-03T12:12:17.352Z,55.3
2023-04-03T12:13:16.918Z,56.4
2023-04-03T12:14:17.465Z,57.1
2023-04-03T12:15:17.007Z,56.5
2023-04-03T12:16:16.622Z,56.2
2023-04-03T12:17:17.208Z,56.3
2023-04-03T12:18:16.749Z,57.1
2023-04-03T12:19:17.431Z,57.2
2023-04-03T12:20:17.026Z,57.2
2023-04-03T12:21:16.672Z,57.5
2023-04-03T12:22:16.609Z,56.7
2023-04-03T12:23:17.151Z,57.2
2023-04-03T12:24:16.690Z,57.4
2023-04-03T12:25:17.255Z,58.0
2023-04-03T12:26:16.830Z,58.0
2023-04-03T12:27:17.420Z,57.8
2023-04-03T12:28:17.040Z,56.7
2023-04-03T12:29:16.579Z,56.5
2023-04-03T12:30:17.213Z,56.5
2023-04-03T12:31:16.945Z,57.6
2023-04-03T12:32:16.946Z,57.1
2023-04-03T12:33:17.582Z,57.7
2023-04-03T12:34:17.165Z,57.0
2023-04-03T12:35:16.843Z,57.3
2023-04-03T12:36:17.499Z,57.4
2023-04-03T12:37:17.080Z,58.0
2023-04-03T12:38:16.737Z,57.1
2023-04-03T12:39:17.315Z,57.7
2023-04-03T12:40:16.843Z,57.8
2023-04-03T12:41:17.399Z,57.9
2023-04-03T12:42:16.830Z,57.9
2023-04-03T12:43:17.397Z,57.9
2023-04-03T12:44:16.961Z,57.4
2023-04-03T12:45:17.531Z,57.4
2023-04-03T12:46:17.694Z,56.8
2023-04-03T12:47:17.357Z,56.0
2023-04-03T12:48:16.957Z,57.1
2023-04-03T12:49:17.737Z,57.2
2023-04-03T12:50:17.324Z,57.5
2023-04-03T12:51:16.852Z,57.0
2023-04-03T12:52:17.063Z,57.2
2023-04-03T12:53:16.626Z,57.1
2023-04-03T12:54:17.211Z,57.2
2023-04-03T12:55:16.764Z,56.3
2023-04-03T12:56:17.303Z,56.9
2023-04-03T12:57:16.967Z,57.8
2023-04-03T12:58:16.585Z,57.7
2023-04-03T12:59:17.125Z,57.9
2023-04-03T13:00:16.670Z,57.7
2023-04-03T13:01:17.285Z,56.6
2023-04-03T13:02:17.227Z,57.5
2023-04-03T13:03:16.938Z,58.2
2023-04-03T13:04:17.500Z,58.7
2023-04-03T13:05:17.055Z,58.8
2023-04-03T13:06:16.606Z,58.9
2023-04-03T13:07:17.145Z,57.4
2023-04-03T13:08:16.680Z,57.8
2023-04-03T13:09:17.271Z,57.3
2023-04-03T13:10:16.832Z,57.0
2023-04-03T13:11:17.397Z,57.4
2023-04-03T13:12:16.623Z,57.8
2023-04-03T13:13:17.172Z,56.4
2023-04-03T13:14:16.740Z,56.7
2023-04-03T13:15:17.305Z,57.6
2023-04-03T13:16:16.957Z,56.8
2023-04-03T13:17:16.530Z,57.7
2023-04-03T13:18:17.097Z,56.6